PN04 weather

Strittmatter Airport
Ebensburg, Pennsylvania, United States

Public forecast

Using degrees Fahrenheit for public forecast. Weather courtesy of forecast.io.

METAR (pilot weather report)

Closest report is John Murtha Johnstown Cambria County Airport, 15.3 nm (28.2 km) SSW. Retrieved 2019/05/25 22:54 UTC (13 minutes ago):

KJST 252254Z AUTO 20009KT 10SM CLR 22/18 A3004 RMK AO2 SLP162 T02220183

TAF (pilot weather forecast)

Closest forecast is John Murtha Johnstown Cambria County Airport, 15.3 nm (28.2 km) SSW. Retrieved 2019/05/25 18:30 UTC (5 hours ago):

TAF KJST 251728Z 2518/2618 21007G15KT P6SM VCSH SCT040 FM251900 24010G18KT 6SM -SHRA VCTS BKN040CB TEMPO 2519/2521 3SM -TSRA BKN030CB FM252200 24008KT 6SM -SHRA BKN040 FM260200 24008KT P6SM VCSH BKN030 FM260700 27005KT 6SM BR OVC012 FM261400 29006KT P6SM BKN025